Time;durP1;ratioP1;P1;durP2;ratioP2;P2;SDS_P1;SDS_P2;PMS_P1;PMS_P2;Temp;Humidity;BMP_temperature;BMP_pressure;BME280_temperature;BME280_humidity;BME280_pressure;Samples;Min_cycle;Max_cycle;Signal;HPM_P1;HPM_P2
2023/02/15 00:01:48;;;;;;;44.42;32.75;;;;;;;;;;5048002;28;20025;-59
2023/02/15 00:04:16;;;;;;;41.05;31.15;;;;;;;;;;5046423;28;20025;-63
2023/02/15 00:06:42;;;;;;;42.88;30.80;;;;;;;;;;5029845;28;20020;-61
2023/02/15 00:09:09;;;;;;;42.10;30.80;;;;;;;;;;5047815;28;20537;-63
2023/02/15 00:11:49;;;;;;;41.47;32.45;;;;;;;;;;5029005;28;20041;-63
2023/02/15 00:14:23;;;;;;;37.90;30.55;;;;;;;;;;5028963;28;20485;-62
2023/02/15 00:16:49;;;;;;;44.25;31.33;;;;;;;;;;5048023;28;20118;-61
2023/02/15 00:19:16;;;;;;;40.63;33.53;;;;;;;;;;5034072;28;20614;-62
2023/02/15 00:21:43;;;;;;;39.83;30.27;;;;;;;;;;5032375;28;20116;-57
2023/02/15 00:24:09;;;;;;;44.95;32.80;;;;;;;;;;5028676;28;20051;-60
2023/02/15 00:26:36;;;;;;;39.45;30.85;;;;;;;;;;5038632;28;20729;-63
2023/02/15 00:29:02;;;;;;;39.33;31.77;;;;;;;;;;5068171;28;20459;-62
2023/02/15 00:31:30;;;;;;;43.70;31.67;;;;;;;;;;5067786;28;20024;-64
2023/02/15 00:33:56;;;;;;;40.35;30.80;;;;;;;;;;5067015;28;20032;-63
2023/02/15 00:36:22;;;;;;;45.85;31.63;;;;;;;;;;5067543;28;20031;-63
2023/02/15 00:38:48;;;;;;;41.40;30.65;;;;;;;;;;5048856;28;20499;-62
2023/02/15 00:41:14;;;;;;;44.50;32.17;;;;;;;;;;5050189;23;20037;-58
2023/02/15 00:43:40;;;;;;;42.08;31.48;;;;;;;;;;5027112;28;20037;-59
2023/02/15 00:46:06;;;;;;;42.10;30.13;;;;;;;;;;5030416;28;20024;-59
2023/02/15 00:48:32;;;;;;;43.58;32.05;;;;;;;;;;5028928;28;20044;-58
2023/02/15 00:50:59;;;;;;;43.75;31.98;;;;;;;;;;5029007;28;20474;-55
2023/02/15 00:53:26;;;;;;;45.08;32.30;;;;;;;;;;5029616;28;20010;-56
2023/02/15 00:55:52;;;;;;;40.25;31.35;;;;;;;;;;5030330;28;20022;-54
2023/02/15 00:58:18;;;;;;;42.70;33.85;;;;;;;;;;5030595;28;20397;-56
2023/02/15 01:00:45;;;;;;;43.88;31.98;;;;;;;;;;5031196;28;20033;-57
2023/02/15 01:03:12;;;;;;;41.25;29.30;;;;;;;;;;5030443;28;20389;-57
2023/02/15 01:05:38;;;;;;;43.10;32.33;;;;;;;;;;5029833;28;20026;-59
2023/02/15 01:08:04;;;;;;;43.55;31.48;;;;;;;;;;5030074;28;20028;-59
2023/02/15 01:10:30;;;;;;;42.72;32.72;;;;;;;;;;5029679;28;20033;-59
2023/02/15 01:12:56;;;;;;;41.88;29.92;;;;;;;;;;5030900;28;20021;-58
2023/02/15 01:15:22;;;;;;;39.35;31.30;;;;;;;;;;5032967;28;20479;-60
2023/02/15 01:17:52;;;;;;;40.92;31.83;;;;;;;;;;5034713;28;20089;-57
2023/02/15 01:20:19;;;;;;;43.67;30.40;;;;;;;;;;5034600;28;20029;-60
2023/02/15 01:22:45;;;;;;;39.47;31.83;;;;;;;;;;5034522;28;20026;-59
2023/02/15 01:25:12;;;;;;;39.65;30.27;;;;;;;;;;5033889;28;20079;-59
2023/02/15 01:27:38;;;;;;;47.00;33.67;;;;;;;;;;5034635;28;20174;-56
2023/02/15 01:30:05;;;;;;;41.80;31.88;;;;;;;;;;5033240;28;20030;-58
2023/02/15 01:32:31;;;;;;;47.70;33.25;;;;;;;;;;5034336;28;20030;-58
2023/02/15 01:34:57;;;;;;;42.55;31.33;;;;;;;;;;5032509;28;20032;-59
2023/02/15 01:37:23;;;;;;;41.78;32.67;;;;;;;;;;5033178;28;20026;-55
2023/02/15 01:39:49;;;;;;;41.20;31.23;;;;;;;;;;5034679;28;20040;-60
2023/02/15 01:42:21;;;;;;;42.58;31.88;;;;;;;;;;5034334;28;20128;-57
2023/02/15 01:44:49;;;;;;;41.22;31.05;;;;;;;;;;5033577;28;20079;-58
2023/02/15 01:47:17;;;;;;;41.92;30.38;;;;;;;;;;5032966;28;20021;-58
2023/02/15 01:49:45;;;;;;;43.55;32.60;;;;;;;;;;5034426;28;20264;-55
2023/02/15 01:52:14;;;;;;;38.92;30.75;;;;;;;;;;5033004;28;20068;-57
2023/02/15 01:54:41;;;;;;;42.83;31.63;;;;;;;;;;5033489;28;20044;-59
2023/02/15 01:57:10;;;;;;;41.88;32.83;;;;;;;;;;5033910;28;20048;-59
2023/02/15 01:59:36;;;;;;;;;;;;;;;;;;5034184;28;20125;-59
2023/02/15 02:02:02;;;;;;;42.50;29.70;;;;;;;;;;5033852;28;19905;-58
2023/02/15 02:04:38;;;;;;;46.92;32.03;;;;;;;;;;5032868;28;20049;-56
2023/02/15 02:07:04;;;;;;;38.95;30.40;;;;;;;;;;5033760;28;20021;-58
2023/02/15 02:09:31;;;;;;;44.60;32.47;;;;;;;;;;5033632;28;20032;-59
2023/02/15 02:11:57;;;;;;;42.40;31.77;;;;;;;;;;5032271;28;20029;-59
2023/02/15 02:14:23;;;;;;;42.25;31.35;;;;;;;;;;5032877;28;20030;-59
2023/02/15 02:16:53;;;;;;;39.08;30.65;;;;;;;;;;5033454;28;20532;-59
2023/02/15 02:19:37;;;;;;;47.78;33.55;;;;;;;;;;5032125;28;20026;-56
2023/02/15 02:22:06;;;;;;;39.75;29.77;;;;;;;;;;5033415;28;20108;-58
2023/02/15 02:24:51;;;;;;;44.25;30.27;;;;;;;;;;5032617;28;20446;-59
2023/02/15 02:27:23;;;;;;;43.40;30.75;;;;;;;;;;5031259;28;20025;-59
2023/02/15 02:29:54;;;;;;;42.63;31.55;;;;;;;;;;5033197;28;20033;-59
2023/02/15 02:32:37;;;;;;;38.15;30.30;;;;;;;;;;5032853;28;20481;-56
2023/02/15 02:35:11;;;;;;;43.35;31.50;;;;;;;;;;5032633;28;20036;-54
2023/02/15 02:37:37;;;;;;;42.88;31.75;;;;;;;;;;5033198;28;20466;-59
2023/02/15 02:40:26;;;;;;;39.15;30.60;;;;;;;;;;5032933;28;20037;-59
2023/02/15 02:42:58;;;;;;;39.85;30.42;;;;;;;;;;5032903;28;20416;-58
2023/02/15 02:45:36;;;;;;;40.40;30.33;;;;;;;;;;5032241;28;20033;-60
2023/02/15 02:48:28;;;;;;;46.30;33.67;;;;;;;;;;5031656;28;20018;-60
2023/02/15 02:50:54;;;;;;;42.00;30.80;;;;;;;;;;5029231;28;20045;-59
2023/02/15 02:53:20;;;;;;;44.75;31.58;;;;;;;;;;5032078;28;20087;-59
2023/02/15 02:55:47;;;;;;;40.22;29.02;;;;;;;;;;5015289;28;20030;-58
2023/02/15 02:58:19;;;;;;;40.45;30.92;;;;;;;;;;5032866;28;20029;-58
2023/02/15 03:00:51;;;;;;;39.28;30.73;;;;;;;;;;5032507;28;20030;-58
2023/02/15 03:03:35;;;;;;;39.80;30.60;;;;;;;;;;5031782;28;20099;-59
2023/02/15 03:06:03;;;;;;;40.95;32.13;;;;;;;;;;5032239;28;20087;-59
2023/02/15 03:08:33;;;;;;;42.85;31.40;;;;;;;;;;5014936;28;20022;-58
2023/02/15 03:11:00;;;;;;;36.10;29.60;;;;;;;;;;5032583;28;20025;-58
2023/02/15 03:13:27;;;;;;;39.38;30.63;;;;;;;;;;5014075;28;20022;-59
2023/02/15 03:18:41;;;;;;;40.92;31.15;;;;;;;;;;5032608;28;20088;-57
2023/02/15 03:21:08;;;;;;;43.58;30.88;;;;;;;;;;5014501;28;20041;-59
2023/02/15 03:23:35;;;;;;;42.42;33.28;;;;;;;;;;5013742;28;20022;-59
2023/02/15 03:26:03;;;;;;;40.28;30.83;;;;;;;;;;5032166;28;20067;-57
2023/02/15 03:28:32;;;;;;;40.25;30.50;;;;;;;;;;5032274;28;20025;-58
2023/02/15 03:30:57;;;;;;;;;;;;;;;;;;5014459;28;20060;-60
2023/02/15 03:33:24;;;;;;;43.38;30.85;;;;;;;;;;5031316;28;19979;-59
2023/02/15 03:35:56;;;;;;;42.28;30.95;;;;;;;;;;5032068;28;20013;-59
2023/02/15 03:38:26;;;;;;;41.20;31.80;;;;;;;;;;5030911;28;20437;-56
2023/02/15 03:43:50;;;;;;;39.90;30.15;;;;;;;;;;5017845;28;20033;-58
2023/02/15 03:46:16;;;;;;;43.65;32.72;;;;;;;;;;5031714;28;20027;-58
2023/02/15 03:48:52;;;;;;;40.00;31.23;;;;;;;;;;5031636;28;20343;-57
2023/02/15 03:51:38;;;;;;;39.83;30.42;;;;;;;;;;5013812;28;20485;-59
2023/02/15 03:54:04;;;;;;;44.08;31.27;;;;;;;;;;5031049;28;20023;-59
2023/02/15 03:56:31;;;;;;;40.47;30.60;;;;;;;;;;5013758;28;20528;-60
2023/02/15 04:02:09;;;;;;;45.17;33.05;;;;;;;;;;5031340;28;20397;-59
2023/02/15 04:04:35;;;;;;;41.13;32.22;;;;;;;;;;5029909;28;20030;-57
2023/02/15 04:07:02;;;;;;;43.13;33.58;;;;;;;;;;5011790;28;20022;-59
2023/02/15 04:12:13;;;;;;;48.33;33.33;;;;;;;;;;5011826;28;20079;-57
2023/02/15 04:17:23;;;;;;;44.50;33.83;;;;;;;;;;5011869;28;20096;-58
2023/02/15 04:25:18;;;;;;;47.20;35.17;;;;;;;;;;5010584;28;20079;-60
2023/02/15 04:27:46;;;;;;;43.78;33.85;;;;;;;;;;5011287;28;20022;-59
2023/02/15 04:30:12;;;;;;;48.70;33.70;;;;;;;;;;5011296;28;20108;-56
2023/02/15 04:32:38;;;;;;;44.42;33.55;;;;;;;;;;5011159;28;20030;-59
2023/02/15 04:35:05;;;;;;;39.50;31.75;;;;;;;;;;5010442;28;20022;-57
2023/02/15 04:37:31;;;;;;;45.03;33.28;;;;;;;;;;4993603;28;20060;-59
2023/02/15 04:40:00;;;;;;;48.13;34.42;;;;;;;;;;5010940;28;20482;-59
2023/02/15 04:42:27;;;;;;;42.35;33.90;;;;;;;;;;5010671;28;20075;-59
2023/02/15 04:44:53;;;;;;;43.17;33.63;;;;;;;;;;5010312;28;20025;-58
2023/02/15 04:47:19;;;;;;;44.45;33.08;;;;;;;;;;5011172;28;20068;-58
2023/02/15 04:49:45;;;;;;;50.53;34.35;;;;;;;;;;4995082;28;20461;-58
2023/02/15 04:52:11;;;;;;;43.70;32.92;;;;;;;;;;5015070;28;20119;-58
2023/02/15 04:54:38;;;;;;;44.65;33.90;;;;;;;;;;4996753;28;20030;-56
2023/02/15 04:57:05;;;;;;;43.78;35.30;;;;;;;;;;5015354;28;20033;-58
2023/02/15 04:59:31;;;;;;;43.38;33.78;;;;;;;;;;5015240;28;20479;-57
2023/02/15 05:01:57;;;;;;;45.13;34.55;;;;;;;;;;5014964;28;20406;-59
2023/02/15 05:04:23;;;;;;;43.88;32.92;;;;;;;;;;5014436;28;20101;-59
2023/02/15 05:06:49;;;;;;;42.13;32.53;;;;;;;;;;5015177;28;20022;-57
2023/02/15 05:09:15;;;;;;;42.92;34.22;;;;;;;;;;5020978;28;20120;-65
2023/02/15 05:11:41;;;;;;;46.33;34.15;;;;;;;;;;5025931;28;20030;-58
2023/02/15 05:14:07;;;;;;;49.00;36.17;;;;;;;;;;5015526;28;20684;-57
2023/02/15 05:16:34;;;;;;;45.45;33.65;;;;;;;;;;5018006;28;20026;-59
2023/02/15 05:19:00;;;;;;;44.83;34.50;;;;;;;;;;5021886;28;20074;-58
2023/02/15 05:21:26;;;;;;;42.63;36.13;;;;;;;;;;5034100;28;20596;-58
2023/02/15 05:23:52;;;;;;;44.05;33.53;;;;;;;;;;5015596;28;20025;-59
2023/02/15 05:29:04;;;;;;;44.30;33.83;;;;;;;;;;5018427;28;20092;-60
2023/02/15 05:31:31;;;;;;;41.53;33.65;;;;;;;;;;5034138;28;20409;-60
2023/02/15 05:33:58;;;;;;;42.90;33.83;;;;;;;;;;5033343;28;20026;-59
2023/02/15 05:36:24;;;;;;;46.42;34.30;;;;;;;;;;5033942;28;20040;-59
2023/02/15 05:38:50;;;;;;;43.22;33.08;;;;;;;;;;5033849;28;20097;-59
2023/02/15 05:41:16;;;;;;;45.05;33.60;;;;;;;;;;5033571;28;20424;-57
2023/02/15 05:43:42;;;;;;;48.95;35.67;;;;;;;;;;5024890;28;20388;-58
2023/02/15 05:46:08;;;;;;;46.45;34.42;;;;;;;;;;5033810;28;20026;-58
2023/02/15 05:48:35;;;;;;;44.55;35.22;;;;;;;;;;5016118;28;20497;-57
2023/02/15 05:51:05;;;;;;;45.78;34.97;;;;;;;;;;5033617;28;20509;-60
2023/02/15 05:53:32;;;;;;;45.92;34.85;;;;;;;;;;5033169;28;20025;-60
2023/02/15 05:55:59;;;;;;;45.92;35.70;;;;;;;;;;5033617;28;20029;-59
2023/02/15 05:58:29;;;;;;;44.58;34.67;;;;;;;;;;5016227;28;20533;-58
2023/02/15 06:00:55;;;;;;;42.97;34.30;;;;;;;;;;5032199;28;20073;-58
2023/02/15 06:03:22;;;;;;;44.00;35.42;;;;;;;;;;5032785;28;20407;-59
2023/02/15 06:05:48;;;;;;;45.28;36.58;;;;;;;;;;5033246;28;20022;-60
2023/02/15 06:08:14;;;;;;;44.78;34.83;;;;;;;;;;5033212;28;20018;-59
2023/02/15 06:10:40;;;;;;;41.17;33.67;;;;;;;;;;5033113;28;20037;-59
2023/02/15 06:13:06;;;;;;;44.97;34.75;;;;;;;;;;5032400;28;20057;-59
2023/02/15 06:15:33;;;;;;;41.42;32.67;;;;;;;;;;5032804;28;20413;-59
2023/02/15 06:17:59;;;;;;;44.08;32.90;;;;;;;;;;5033240;28;20032;-57
2023/02/15 06:20:25;;;;;;;41.10;32.55;;;;;;;;;;5033048;28;20466;-59
2023/02/15 06:22:51;;;;;;;41.50;33.17;;;;;;;;;;5015028;28;20039;-60
2023/02/15 06:25:17;;;;;;;41.80;33.55;;;;;;;;;;5032366;28;20021;-55
2023/02/15 06:27:43;;;;;;;42.03;32.85;;;;;;;;;;5032991;28;20435;-59
2023/02/15 06:30:10;;;;;;;41.38;31.60;;;;;;;;;;5032800;28;20030;-58
2023/02/15 06:32:36;;;;;;;45.53;34.15;;;;;;;;;;5032362;28;20103;-54
2023/02/15 06:35:02;;;;;;;44.65;32.63;;;;;;;;;;5031997;28;20466;-58
2023/02/15 06:37:28;;;;;;;45.28;34.58;;;;;;;;;;5014157;28;20038;-59
2023/02/15 06:39:54;;;;;;;46.05;34.00;;;;;;;;;;5032206;28;20033;-56
2023/02/15 06:42:20;;;;;;;40.42;31.77;;;;;;;;;;5062122;23;20187;-64
2023/02/15 06:44:46;;;;;;;46.17;33.38;;;;;;;;;;5050852;28;20040;-66
2023/02/15 06:47:12;;;;;;;43.40;33.50;;;;;;;;;;5054915;28;20073;-65
2023/02/15 06:49:38;;;;;;;48.47;34.88;;;;;;;;;;5054905;28;20127;-66
2023/02/15 06:52:04;;;;;;;44.28;33.08;;;;;;;;;;5046143;28;20026;-66
2023/02/15 06:54:30;;;;;;;48.90;33.05;;;;;;;;;;5052616;28;20431;-67
2023/02/15 06:56:56;;;;;;;43.92;32.60;;;;;;;;;;5053656;28;20035;-64
2023/02/15 06:59:22;;;;;;;40.15;32.08;;;;;;;;;;5053495;28;20032;-62
2023/02/15 07:01:48;;;;;;;49.92;33.50;;;;;;;;;;5045098;28;20446;-66
2023/02/15 07:04:15;;;;;;;37.97;30.92;;;;;;;;;;5071097;28;20492;-65
2023/02/15 07:06:41;;;;;;;43.17;33.40;;;;;;;;;;5053519;28;20115;-67
2023/02/15 07:09:07;;;;;;;45.55;32.05;;;;;;;;;;5053432;28;20029;-66
2023/02/15 07:14:18;;;;;;;45.05;32.88;;;;;;;;;;5071005;28;20089;-66
2023/02/15 07:16:44;;;;;;;44.25;33.95;;;;;;;;;;5052952;28;20028;-66
2023/02/15 07:19:10;;;;;;;44.47;33.35;;;;;;;;;;5052484;28;20369;-65
2023/02/15 07:21:37;;;;;;;46.75;31.92;;;;;;;;;;5052596;28;20047;-66
2023/02/15 07:24:03;;;;;;;45.47;32.80;;;;;;;;;;5069861;28;20552;-67
2023/02/15 07:26:31;;;;;;;45.58;33.78;;;;;;;;;;5070355;28;20110;-65
2023/02/15 07:28:57;;;;;;;42.70;32.38;;;;;;;;;;5070860;28;20079;-65
2023/02/15 07:31:23;;;;;;;45.28;32.35;;;;;;;;;;5071201;28;20032;-66
2023/02/15 07:33:49;;;;;;;42.17;32.10;;;;;;;;;;5052262;28;20032;-66
2023/02/15 07:36:15;;;;;;;41.55;32.55;;;;;;;;;;5071378;28;20112;-66
2023/02/15 07:38:42;;;;;;;44.13;31.20;;;;;;;;;;5070866;28;20028;-66
2023/02/15 07:41:09;;;;;;;43.33;31.83;;;;;;;;;;5071148;28;20029;-66
2023/02/15 07:43:36;;;;;;;43.72;32.47;;;;;;;;;;5052000;28;20472;-65
2023/02/15 07:46:11;;;;;;;43.85;32.60;;;;;;;;;;5053496;28;20028;-66
2023/02/15 07:48:38;;;;;;;45.58;30.75;;;;;;;;;;5070381;28;20029;-63
2023/02/15 07:51:04;;;;;;;42.63;31.98;;;;;;;;;;5070706;28;20037;-66
2023/02/15 07:53:30;;;;;;;41.78;30.92;;;;;;;;;;5052298;28;20044;-66
2023/02/15 07:56:03;;;;;;;45.00;30.85;;;;;;;;;;5053027;28;20369;-65
2023/02/15 08:01:14;;;;;;;40.03;31.65;;;;;;;;;;5070838;28;20059;-66
2023/02/15 08:03:40;;;;;;;41.67;31.20;;;;;;;;;;5069783;28;20503;-66
2023/02/15 08:06:07;;;;;;;41.67;30.00;;;;;;;;;;5070282;28;20491;-67
2023/02/15 08:08:37;;;;;;;39.50;30.10;;;;;;;;;;5056615;28;20470;-66
2023/02/15 08:13:55;;;;;;;42.70;30.13;;;;;;;;;;5049915;28;20036;-65
2023/02/15 08:16:24;;;;;;;37.00;28.40;;;;;;;;;;5047618;28;20454;-67
2023/02/15 08:18:50;;;;;;;37.92;27.58;;;;;;;;;;5030186;28;20044;-66
2023/02/15 08:21:17;;;;;;;44.65;30.60;;;;;;;;;;5030677;28;20430;-65
2023/02/15 08:23:42;;;;;;;40.25;28.50;;;;;;;;;;5029137;28;20049;-67
2023/02/15 08:26:09;;;;;;;42.90;30.63;;;;;;;;;;5030133;28;20453;-66
2023/02/15 08:28:35;;;;;;;38.67;27.20;;;;;;;;;;5030224;28;20485;-67
2023/02/15 08:31:06;;;;;;;35.60;28.50;;;;;;;;;;5030986;28;20030;-66
2023/02/15 08:33:33;;;;;;;36.58;28.02;;;;;;;;;;5029662;28;20030;-66
2023/02/15 08:36:03;;;;;;;35.47;27.35;;;;;;;;;;5029967;28;20025;-66
2023/02/15 08:38:29;;;;;;;40.03;29.02;;;;;;;;;;5029922;28;20038;-67
2023/02/15 08:40:55;;;;;;;38.75;28.20;;;;;;;;;;5012477;28;20064;-66
2023/02/15 08:43:21;;;;;;;39.85;28.35;;;;;;;;;;5012080;28;20120;-67
2023/02/15 08:45:47;;;;;;;37.65;27.00;;;;;;;;;;5056367;28;20027;-67
2023/02/15 08:48:13;;;;;;;41.10;27.63;;;;;;;;;;5032171;28;20432;-66
2023/02/15 08:50:39;;;;;;;41.95;27.42;;;;;;;;;;5063755;28;20108;-64
2023/02/15 08:53:05;;;;;;;34.92;28.05;;;;;;;;;;5068868;28;20032;-65
2023/02/15 08:55:31;;;;;;;39.75;26.88;;;;;;;;;;5069333;28;20035;-66
2023/02/15 08:57:57;;;;;;;40.55;28.17;;;;;;;;;;5069371;28;20103;-62
2023/02/15 09:00:24;;;;;;;35.67;25.65;;;;;;;;;;5069459;28;20124;-62
2023/02/15 09:02:52;;;;;;;40.22;27.83;;;;;;;;;;5069255;28;20131;-62
2023/02/15 09:05:18;;;;;;;38.85;27.50;;;;;;;;;;5068682;28;20025;-61
2023/02/15 09:07:44;;;;;;;37.00;27.00;;;;;;;;;;5069467;28;20021;-62
2023/02/15 09:10:10;;;;;;;41.67;27.20;;;;;;;;;;5038696;28;20029;-62
2023/02/15 09:12:36;;;;;;;35.60;26.30;;;;;;;;;;5073299;28;20054;-62
2023/02/15 09:15:02;;;;;;;35.78;26.50;;;;;;;;;;5059125;28;20039;-62
2023/02/15 09:17:28;;;;;;;34.20;25.83;;;;;;;;;;5076341;28;20024;-63
2023/02/15 09:19:54;;;;;;;37.22;26.65;;;;;;;;;;5055300;28;20047;-62
2023/02/15 09:22:20;;;;;;;36.33;26.05;;;;;;;;;;5072490;28;20108;-60
2023/02/15 09:24:46;;;;;;;39.05;26.92;;;;;;;;;;5053858;28;20468;-59
2023/02/15 09:27:12;;;;;;;36.60;25.50;;;;;;;;;;5067008;28;20052;-60
2023/02/15 09:29:38;;;;;;;36.40;25.20;;;;;;;;;;5054963;28;20028;-60
2023/02/15 09:32:04;;;;;;;39.05;26.63;;;;;;;;;;5051160;28;20020;-59
2023/02/15 09:34:30;;;;;;;34.92;24.15;;;;;;;;;;5056591;28;20548;-61
2023/02/15 09:36:56;;;;;;;40.17;27.85;;;;;;;;;;5071866;28;20077;-61
2023/02/15 09:39:23;;;;;;;38.83;26.90;;;;;;;;;;5054457;28;20055;-58
2023/02/15 09:41:55;;;;;;;41.70;25.98;;;;;;;;;;5062287;28;20314;-60
2023/02/15 09:44:39;;;;;;;36.72;25.73;;;;;;;;;;5048781;28;20025;-66
2023/02/15 09:47:16;;;;;;;41.47;24.85;;;;;;;;;;5034847;28;20032;-63
2023/02/15 09:50:06;;;;;;;37.38;25.55;;;;;;;;;;5034703;28;20509;-62
2023/02/15 09:52:32;;;;;;;35.38;24.88;;;;;;;;;;5006069;28;20041;-62
2023/02/15 09:55:13;;;;;;;39.90;25.05;;;;;;;;;;5051550;28;20075;-62
2023/02/15 09:57:48;;;;;;;38.25;25.70;;;;;;;;;;5034422;28;20056;-61
2023/02/15 10:00:24;;;;;;;40.33;25.88;;;;;;;;;;5052391;28;20083;-62
2023/02/15 10:02:59;;;;;;;36.47;24.63;;;;;;;;;;5052360;28;20495;-64
2023/02/15 10:05:30;;;;;;;36.95;25.75;;;;;;;;;;5051746;28;20071;-62
2023/02/15 10:08:12;;;;;;;40.63;26.25;;;;;;;;;;5052287;28;20025;-63
2023/02/15 10:10:44;;;;;;;41.70;24.42;;;;;;;;;;5033810;28;20026;-64
2023/02/15 10:13:33;;;;;;;37.92;24.27;;;;;;;;;;5013846;28;20030;-63
2023/02/15 10:16:05;;;;;;;46.42;25.75;;;;;;;;;;5032205;28;20037;-64
2023/02/15 10:18:50;;;;;;;44.42;26.65;;;;;;;;;;5032100;28;20026;-62
2023/02/15 10:21:21;;;;;;;35.55;23.42;;;;;;;;;;5013695;28;20101;-64
2023/02/15 10:23:47;;;;;;;36.47;24.35;;;;;;;;;;5031386;28;20421;-63
2023/02/15 10:26:25;;;;;;;38.03;24.05;;;;;;;;;;5031976;28;20017;-63
2023/02/15 10:28:56;;;;;;;41.92;26.33;;;;;;;;;;5031666;28;20026;-63
2023/02/15 10:31:25;;;;;;;39.80;25.45;;;;;;;;;;5031850;28;20552;-63
2023/02/15 10:34:03;;;;;;;39.40;24.75;;;;;;;;;;5030999;28;20079;-63
2023/02/15 10:36:55;;;;;;;39.60;25.42;;;;;;;;;;5031725;28;20435;-64
2023/02/15 10:39:31;;;;;;;34.63;23.95;;;;;;;;;;5010643;28;20045;-63
2023/02/15 10:41:57;;;;;;;38.05;24.48;;;;;;;;;;5031691;28;20119;-64
2023/02/15 10:44:35;;;;;;;40.33;26.60;;;;;;;;;;5030685;28;20052;-62
2023/02/15 10:47:07;;;;;;;37.70;25.15;;;;;;;;;;5030947;28;20036;-62
2023/02/15 10:49:45;;;;;;;42.28;25.65;;;;;;;;;;5031552;28;20025;-60
2023/02/15 10:52:17;;;;;;;35.95;24.02;;;;;;;;;;5031482;28;20386;-63
2023/02/15 10:54:54;;;;;;;36.70;24.20;;;;;;;;;;5030823;28;20120;-65
2023/02/15 10:57:27;;;;;;;37.30;24.88;;;;;;;;;;5031862;28;20033;-64
2023/02/15 11:00:05;;;;;;;39.88;24.95;;;;;;;;;;5031532;28;20087;-62
2023/02/15 11:02:37;;;;;;;40.15;25.77;;;;;;;;;;5031485;28;20085;-64
2023/02/15 11:05:16;;;;;;;37.63;23.77;;;;;;;;;;5012979;28;20129;-63
2023/02/15 11:07:44;;;;;;;39.50;25.63;;;;;;;;;;5031667;28;20026;-62
2023/02/15 11:10:25;;;;;;;37.57;24.40;;;;;;;;;;5031662;28;20021;-63
2023/02/15 11:12:51;;;;;;;36.63;24.60;;;;;;;;;;5031417;28;20091;-61
2023/02/15 11:15:25;;;;;;;42.42;24.33;;;;;;;;;;5042639;28;20036;-63
2023/02/15 11:18:06;;;;;;;46.13;26.30;;;;;;;;;;5038886;28;20112;-61
2023/02/15 11:20:52;;;;;;;54.42;27.67;;;;;;;;;;5027032;28;20037;-65
2023/02/15 11:23:18;;;;;;;36.75;24.80;;;;;;;;;;5033572;28;20028;-65
2023/02/15 11:26:00;;;;;;;38.30;24.48;;;;;;;;;;5070946;28;20328;-65
2023/02/15 11:28:30;;;;;;;41.60;25.52;;;;;;;;;;5070846;28;20070;-66
2023/02/15 11:30:59;;;;;;;37.70;25.85;;;;;;;;;;5070770;28;20028;-65
2023/02/15 11:33:30;;;;;;;43.40;26.27;;;;;;;;;;5070272;28;20025;-67
2023/02/15 11:36:06;;;;;;;35.05;26.95;;;;;;;;;;5070786;28;20071;-65
2023/02/15 11:38:35;;;;;;;40.08;28.38;;;;;;;;;;5070536;28;20112;-65
2023/02/15 11:41:04;;;;;;;38.42;28.35;;;;;;;;;;5053727;28;20033;-64
2023/02/15 11:43:40;;;;;;;41.70;28.63;;;;;;;;;;5049795;28;20031;-64
2023/02/15 11:46:06;;;;;;;37.65;27.73;;;;;;;;;;5050520;28;20090;-65
2023/02/15 11:48:32;;;;;;;35.75;27.70;;;;;;;;;;5050214;28;20081;-65
2023/02/15 11:50:59;;;;;;;37.50;28.85;;;;;;;;;;5050052;28;20070;-65
2023/02/15 11:53:29;;;;;;;36.35;27.42;;;;;;;;;;5031717;28;20079;-64
2023/02/15 11:55:55;;;;;;;38.92;29.27;;;;;;;;;;5050336;28;20021;-65
2023/02/15 11:58:30;;;;;;;36.10;28.23;;;;;;;;;;5049367;28;20036;-66
2023/02/15 12:01:16;;;;;;;38.58;28.45;;;;;;;;;;5049837;28;20190;-66
2023/02/15 12:03:53;;;;;;;48.50;29.50;;;;;;;;;;5020748;28;20040;-66
2023/02/15 12:06:24;;;;;;;38.15;28.08;;;;;;;;;;5035568;28;20108;-66
2023/02/15 12:09:09;;;;;;;35.45;27.08;;;;;;;;;;5030212;28;20025;-70
2023/02/15 12:11:39;;;;;;;34.90;26.23;;;;;;;;;;5016825;28;20132;-64
2023/02/15 12:14:05;;;;;;;36.10;28.38;;;;;;;;;;5018644;28;20025;-64
2023/02/15 12:16:34;;;;;;;37.45;26.98;;;;;;;;;;5039110;28;20025;-66
2023/02/15 12:19:01;;;;;;;36.13;26.95;;;;;;;;;;5033621;28;20032;-65
2023/02/15 12:21:32;;;;;;;37.67;27.13;;;;;;;;;;5038759;28;20160;-67
2023/02/15 12:24:03;;;;;;;37.28;28.60;;;;;;;;;;5048985;28;20074;-67
2023/02/15 12:26:31;;;;;;;42.42;29.80;;;;;;;;;;5049619;28;20401;-67
2023/02/15 12:29:13;;;;;;;37.03;28.13;;;;;;;;;;5049815;28;20025;-66
2023/02/15 12:31:44;;;;;;;38.97;28.23;;;;;;;;;;5049328;28;20021;-67
2023/02/15 12:34:22;;;;;;;38.75;28.67;;;;;;;;;;5048855;28;20025;-67
2023/02/15 12:36:54;;;;;;;;;;;;;;;;;;5043423;28;20032;-67
2023/02/15 12:39:20;;;;;;;34.72;28.17;;;;;;;;;;5049625;28;20000;-67
2023/02/15 12:44:23;;;;;;;39.35;29.52;;;;;;;;;;5028144;28;20371;-62
2023/02/15 12:46:56;;;;;;;34.90;27.77;;;;;;;;;;5030419;28;20030;-62
2023/02/15 12:49:22;;;;;;;33.78;27.23;;;;;;;;;;5030334;28;20032;-62
2023/02/15 12:51:51;;;;;;;35.75;27.80;;;;;;;;;;5030538;28;20058;-62
2023/02/15 12:54:26;;;;;;;39.13;28.90;;;;;;;;;;5029696;28;20099;-63
2023/02/15 12:56:52;;;;;;;38.97;28.50;;;;;;;;;;5012640;28;20121;-63
2023/02/15 12:59:22;;;;;;;34.70;26.90;;;;;;;;;;5012385;28;20026;-65
2023/02/15 13:01:48;;;;;;;34.72;27.48;;;;;;;;;;5030265;28;20037;-63
2023/02/15 13:04:27;;;;;;;35.85;28.17;;;;;;;;;;5029773;28;20440;-64
2023/02/15 13:06:57;;;;;;;32.58;26.25;;;;;;;;;;5012098;28;20052;-63
2023/02/15 13:09:32;;;;;;;38.63;26.30;;;;;;;;;;5012423;28;20449;-63
2023/02/15 13:12:17;;;;;;;38.40;28.10;;;;;;;;;;5003963;28;20156;-63
2023/02/15 13:14:48;;;;;;;35.28;27.88;;;;;;;;;;5032968;28;20092;-63
2023/02/15 13:17:17;;;;;;;35.25;28.20;;;;;;;;;;5016663;28;20499;-62
2023/02/15 13:19:54;;;;;;;36.28;27.17;;;;;;;;;;5034028;28;20107;-62
2023/02/15 13:22:25;;;;;;;37.05;28.52;;;;;;;;;;5033930;28;20029;-63
2023/02/15 13:24:58;;;;;;;36.60;27.23;;;;;;;;;;5015601;28;20476;-63
2023/02/15 13:27:27;;;;;;;36.17;27.70;;;;;;;;;;5034079;28;20029;-60
2023/02/15 13:29:58;;;;;;;41.53;27.90;;;;;;;;;;5016386;28;20433;-63
2023/02/15 13:32:32;;;;;;;35.45;28.02;;;;;;;;;;5034039;28;20041;-63
2023/02/15 13:34:59;;;;;;;38.53;27.40;;;;;;;;;;5033447;28;20048;-63
2023/02/15 13:37:46;;;;;;;34.50;28.17;;;;;;;;;;5016577;28;20041;-59
2023/02/15 13:40:11;;;;;;;37.72;28.90;;;;;;;;;;5005958;28;20084;-63
2023/02/15 13:42:40;;;;;;;36.08;26.90;;;;;;;;;;5033664;28;20072;-64
2023/02/15 13:45:30;;;;;;;35.22;28.38;;;;;;;;;;5025867;28;20030;-63
2023/02/15 13:47:59;;;;;;;37.15;27.27;;;;;;;;;;5025501;28;20026;-63
2023/02/15 13:50:29;;;;;;;38.30;27.98;;;;;;;;;;5016000;28;20022;-63
2023/02/15 13:52:57;;;;;;;35.80;27.83;;;;;;;;;;5028390;28;20018;-63
2023/02/15 13:55:59;;;;;;;35.00;27.00;;;;;;;;;;5007030;28;20494;-63
2023/02/15 13:58:49;;;;;;;36.25;27.33;;;;;;;;;;4988006;28;20058;-64
2023/02/15 14:01:38;;;;;;;39.88;28.25;;;;;;;;;;5029633;28;20398;-64
2023/02/15 14:04:28;;;;;;;37.47;26.75;;;;;;;;;;5019580;28;20033;-63
2023/02/15 14:07:14;;;;;;;36.15;27.30;;;;;;;;;;5003275;28;20033;-64
2023/02/15 14:09:43;;;;;;;33.75;25.92;;;;;;;;;;4983399;28;20049;-64
2023/02/15 14:12:12;;;;;;;35.70;26.38;;;;;;;;;;5033409;28;20029;-63
2023/02/15 14:15:00;;;;;;;35.58;26.88;;;;;;;;;;5015460;28;20123;-63
2023/02/15 14:17:32;;;;;;;37.50;28.17;;;;;;;;;;5015449;28;20484;-64
2023/02/15 14:20:01;;;;;;;36.75;26.73;;;;;;;;;;5033238;28;20401;-63
2023/02/15 14:22:41;;;;;;;36.05;26.45;;;;;;;;;;5032485;28;20389;-63
2023/02/15 14:25:28;;;;;;;39.10;27.17;;;;;;;;;;5032629;28;20116;-62
2023/02/15 14:27:54;;;;;;;38.63;27.35;;;;;;;;;;5012464;28;20027;-64
2023/02/15 14:30:20;;;;;;;33.83;26.60;;;;;;;;;;5013372;28;20029;-64
2023/02/15 14:32:49;;;;;;;34.60;27.00;;;;;;;;;;5026094;28;20028;-63
2023/02/15 14:35:15;;;;;;;;;;;;;;;;;;5020633;28;20698;-63
2023/02/15 14:37:50;;;;;;;34.50;26.48;;;;;;;;;;4995145;28;19935;-64
2023/02/15 14:43:23;;;;;;;34.47;25.70;;;;;;;;;;5013529;28;20677;-63
2023/02/15 14:45:55;;;;;;;34.70;25.40;;;;;;;;;;5013829;28;20478;-63
2023/02/15 14:48:21;;;;;;;36.63;26.30;;;;;;;;;;5013633;28;20462;-64
2023/02/15 14:50:47;;;;;;;38.03;26.77;;;;;;;;;;5013648;28;20029;-63
2023/02/15 14:53:16;;;;;;;39.03;26.08;;;;;;;;;;5012719;28;20084;-63
2023/02/15 14:55:42;;;;;;;35.53;26.48;;;;;;;;;;5012653;28;20100;-63
2023/02/15 14:58:12;;;;;;;35.45;26.55;;;;;;;;;;4995156;28;20029;-61
2023/02/15 15:00:39;;;;;;;36.33;25.73;;;;;;;;;;5012456;28;20030;-63
2023/02/15 15:03:32;;;;;;;33.75;26.13;;;;;;;;;;5012566;28;20022;-63
2023/02/15 15:06:00;;;;;;;36.50;26.40;;;;;;;;;;5010784;28;20038;-63
2023/02/15 15:08:29;;;;;;;35.75;26.38;;;;;;;;;;5013288;28;20022;-63
2023/02/15 15:10:55;;;;;;;36.38;26.58;;;;;;;;;;5031495;28;20037;-59